sensor_id;sensor_type;location;lat;lon;timestamp;pressure;altitude;pressure_sealevel;temperature;humidity
50368;BME280;36281;34.132;-118.018;2024-03-06T00:01:32;100045.41;;;19.99;50.79
50368;BME280;36281;34.132;-118.018;2024-03-06T00:04:02;100048.34;;;19.93;50.93
50368;BME280;36281;34.132;-118.018;2024-03-06T00:06:32;100044.31;;;19.75;51.43
50368;BME280;36281;34.132;-118.018;2024-03-06T00:09:01;100036.22;;;19.54;52.09
50368;BME280;36281;34.132;-118.018;2024-03-06T00:11:33;100058.56;;;19.70;51.83
50368;BME280;36281;34.132;-118.018;2024-03-06T00:14:04;100061.75;;;19.72;51.72
50368;BME280;36281;34.132;-118.018;2024-03-06T00:16:34;100044.78;;;19.51;51.65
50368;BME280;36281;34.132;-118.018;2024-03-06T00:19:03;100059.56;;;19.54;51.94
50368;BME280;36281;34.132;-118.018;2024-03-06T00:21:32;100053.31;;;19.23;52.14
50368;BME280;36281;34.132;-118.018;2024-03-06T00:24:01;100060.28;;;19.19;52.74
50368;BME280;36281;34.132;-118.018;2024-03-06T00:26:32;100055.66;;;19.04;52.87
50368;BME280;36281;34.132;-118.018;2024-03-06T00:29:01;100040.34;;;19.04;53.08
50368;BME280;36281;34.132;-118.018;2024-03-06T00:31:30;100044.09;;;18.98;53.45
50368;BME280;36281;34.132;-118.018;2024-03-06T00:33:59;100038.22;;;19.01;53.71
50368;BME280;36281;34.132;-118.018;2024-03-06T00:36:28;100040.84;;;18.91;53.92
50368;BME280;36281;34.132;-118.018;2024-03-06T00:38:57;100040.06;;;18.91;54.01
50368;BME280;36281;34.132;-118.018;2024-03-06T00:41:26;100046.22;;;18.91;54.28
50368;BME280;36281;34.132;-118.018;2024-03-06T00:43:57;100043.56;;;18.96;54.32
50368;BME280;36281;34.132;-118.018;2024-03-06T00:46:27;100018.69;;;18.64;53.98
50368;BME280;36281;34.132;-118.018;2024-03-06T00:48:56;100046.94;;;18.71;54.49
50368;BME280;36281;34.132;-118.018;2024-03-06T00:51:25;100044.72;;;18.63;54.58
50368;BME280;36281;34.132;-118.018;2024-03-06T00:54:08;100042.78;;;18.53;55.09
50368;BME280;36281;34.132;-118.018;2024-03-06T00:56:38;100038.19;;;18.49;55.24
50368;BME280;36281;34.132;-118.018;2024-03-06T00:59:09;100034.47;;;18.50;55.28
50368;BME280;36281;34.132;-118.018;2024-03-06T01:01:39;100033.06;;;18.42;55.69
50368;BME280;36281;34.132;-118.018;2024-03-06T01:04:08;100023.38;;;18.36;56.07
50368;BME280;36281;34.132;-118.018;2024-03-06T01:06:37;100038.13;;;18.39;56.33
50368;BME280;36281;34.132;-118.018;2024-03-06T01:09:06;100043.13;;;18.25;56.62
50368;BME280;36281;34.132;-118.018;2024-03-06T01:11:35;100035.84;;;18.15;56.60
50368;BME280;36281;34.132;-118.018;2024-03-06T01:14:05;100035.22;;;18.03;56.37
50368;BME280;36281;34.132;-118.018;2024-03-06T01:16:36;100041.66;;;18.07;57.07
50368;BME280;36281;34.132;-118.018;2024-03-06T01:19:05;100034.13;;;18.04;56.73
50368;BME280;36281;34.132;-118.018;2024-03-06T01:21:34;100037.34;;;18.01;57.14
50368;BME280;36281;34.132;-118.018;2024-03-06T01:24:03;100026.78;;;17.89;57.27
50368;BME280;36281;34.132;-118.018;2024-03-06T01:26:32;100048.53;;;17.93;57.27
50368;BME280;36281;34.132;-118.018;2024-03-06T01:29:02;100039.06;;;17.85;57.37
50368;BME280;36281;34.132;-118.018;2024-03-06T01:31:31;100052.28;;;17.92;57.54
50368;BME280;36281;34.132;-118.018;2024-03-06T01:34:02;100047.22;;;17.68;57.62
50368;BME280;36281;34.132;-118.018;2024-03-06T01:36:31;100044.34;;;17.48;58.26
50368;BME280;36281;34.132;-118.018;2024-03-06T01:39:01;100063.84;;;17.43;58.67
50368;BME280;36281;34.132;-118.018;2024-03-06T01:41:31;100042.00;;;17.29;58.69
50368;BME280;36281;34.132;-118.018;2024-03-06T01:44:00;100043.31;;;17.27;59.18
50368;BME280;36281;34.132;-118.018;2024-03-06T01:46:30;100042.94;;;17.18;59.54
50368;BME280;36281;34.132;-118.018;2024-03-06T01:49:01;100058.06;;;17.29;60.09
50368;BME280;36281;34.132;-118.018;2024-03-06T01:51:31;100050.50;;;17.21;60.25
50368;BME280;36281;34.132;-118.018;2024-03-06T01:54:01;100056.13;;;17.25;60.50
50368;BME280;36281;34.132;-118.018;2024-03-06T01:56:33;100045.84;;;17.12;60.23
50368;BME280;36281;34.132;-118.018;2024-03-06T01:59:03;100050.66;;;17.15;60.83
50368;BME280;36281;34.132;-118.018;2024-03-06T02:01:33;100043.97;;;17.12;61.02
50368;BME280;36281;34.132;-118.018;2024-03-06T02:04:04;100055.84;;;16.99;61.72
50368;BME280;36281;34.132;-118.018;2024-03-06T02:06:34;100049.56;;;16.89;62.09
50368;BME280;36281;34.132;-118.018;2024-03-06T02:09:03;100038.47;;;16.80;62.13
50368;BME280;36281;34.132;-118.018;2024-03-06T02:11:33;100051.56;;;16.76;62.77
50368;BME280;36281;34.132;-118.018;2024-03-06T02:14:02;100025.88;;;16.59;62.35
50368;BME280;36281;34.132;-118.018;2024-03-06T02:16:38;100036.50;;;16.53;62.87
50368;BME280;36281;34.132;-118.018;2024-03-06T02:19:12;100057.47;;;16.62;62.98
50368;BME280;36281;34.132;-118.018;2024-03-06T02:21:43;100053.66;;;16.58;63.07
50368;BME280;36281;34.132;-118.018;2024-03-06T02:24:14;100063.09;;;16.43;63.77
50368;BME280;36281;34.132;-118.018;2024-03-06T02:26:44;100053.13;;;16.39;63.59
50368;BME280;36281;34.132;-118.018;2024-03-06T02:29:13;100056.53;;;16.34;64.08
50368;BME280;36281;34.132;-118.018;2024-03-06T02:31:43;100060.09;;;16.40;64.16
50368;BME280;36281;34.132;-118.018;2024-03-06T02:34:12;100055.53;;;16.40;63.70
50368;BME280;36281;34.132;-118.018;2024-03-06T02:36:44;100062.13;;;16.33;64.11
50368;BME280;36281;34.132;-118.018;2024-03-06T02:39:13;100053.56;;;16.14;64.89
50368;BME280;36281;34.132;-118.018;2024-03-06T02:41:43;100061.66;;;16.19;65.03
50368;BME280;36281;34.132;-118.018;2024-03-06T02:44:12;100047.50;;;16.01;66.25
50368;BME280;36281;34.132;-118.018;2024-03-06T02:46:41;100070.81;;;16.23;66.01
50368;BME280;36281;34.132;-118.018;2024-03-06T02:49:15;100062.53;;;16.24;65.30
50368;BME280;36281;34.132;-118.018;2024-03-06T02:51:46;100057.03;;;16.14;65.76
50368;BME280;36281;34.132;-118.018;2024-03-06T02:54:15;100068.22;;;16.11;65.46
50368;BME280;36281;34.132;-118.018;2024-03-06T02:56:45;100073.72;;;16.05;65.66
50368;BME280;36281;34.132;-118.018;2024-03-06T02:59:14;100039.63;;;15.78;66.52
50368;BME280;36281;34.132;-118.018;2024-03-06T03:01:43;100082.44;;;16.00;66.68
50368;BME280;36281;34.132;-118.018;2024-03-06T03:04:13;100080.03;;;15.98;66.39
50368;BME280;36281;34.132;-118.018;2024-03-06T03:06:42;100089.66;;;15.99;66.87
50368;BME280;36281;34.132;-118.018;2024-03-06T03:09:13;100076.25;;;16.11;66.19
50368;BME280;36281;34.132;-118.018;2024-03-06T03:11:43;100053.88;;;15.84;66.51
50368;BME280;36281;34.132;-118.018;2024-03-06T03:14:14;100088.59;;;16.00;66.64
50368;BME280;36281;34.132;-118.018;2024-03-06T03:16:44;100090.72;;;15.98;66.96
50368;BME280;36281;34.132;-118.018;2024-03-06T03:19:13;100093.53;;;15.92;67.31
50368;BME280;36281;34.132;-118.018;2024-03-06T03:21:44;100094.91;;;15.94;67.47
50368;BME280;36281;34.132;-118.018;2024-03-06T03:24:16;100096.06;;;15.98;67.78
50368;BME280;36281;34.132;-118.018;2024-03-06T03:26:45;100052.31;;;15.71;67.67
50368;BME280;36281;34.132;-118.018;2024-03-06T03:29:14;100091.34;;;15.89;67.70
50368;BME280;36281;34.132;-118.018;2024-03-06T03:31:43;100098.63;;;15.93;67.15
50368;BME280;36281;34.132;-118.018;2024-03-06T03:34:13;100105.03;;;15.92;66.95
50368;BME280;36281;34.132;-118.018;2024-03-06T03:36:42;100109.53;;;15.75;67.58
50368;BME280;36281;34.132;-118.018;2024-03-06T03:39:12;100116.34;;;15.83;67.12
50368;BME280;36281;34.132;-118.018;2024-03-06T03:41:51;100104.69;;;15.72;67.73
50368;BME280;36281;34.132;-118.018;2024-03-06T03:44:20;100108.06;;;15.67;67.91
50368;BME280;36281;34.132;-118.018;2024-03-06T03:46:49;100111.88;;;15.71;67.70
50368;BME280;36281;34.132;-118.018;2024-03-06T03:49:18;100105.59;;;15.66;68.08
50368;BME280;36281;34.132;-118.018;2024-03-06T03:51:47;100093.69;;;15.57;67.88
50368;BME280;36281;34.132;-118.018;2024-03-06T03:54:16;100102.97;;;15.54;67.53
50368;BME280;36281;34.132;-118.018;2024-03-06T03:56:45;100100.53;;;15.52;67.67
50368;BME280;36281;34.132;-118.018;2024-03-06T03:59:16;100100.09;;;15.44;67.69
50368;BME280;36281;34.132;-118.018;2024-03-06T04:01:46;100111.78;;;15.55;67.81
50368;BME280;36281;34.132;-118.018;2024-03-06T04:04:19;100113.28;;;15.62;67.55
50368;BME280;36281;34.132;-118.018;2024-03-06T04:06:48;100109.94;;;15.67;67.38
50368;BME280;36281;34.132;-118.018;2024-03-06T04:09:17;100100.06;;;15.56;68.56
50368;BME280;36281;34.132;-118.018;2024-03-06T04:11:47;100092.56;;;15.41;68.43
50368;BME280;36281;34.132;-118.018;2024-03-06T04:14:18;100114.47;;;15.55;68.29
50368;BME280;36281;34.132;-118.018;2024-03-06T04:16:48;100097.09;;;15.40;68.44
50368;BME280;36281;34.132;-118.018;2024-03-06T04:19:17;100125.38;;;15.53;68.95
50368;BME280;36281;34.132;-118.018;2024-03-06T04:21:47;100126.00;;;15.43;68.83
50368;BME280;36281;34.132;-118.018;2024-03-06T04:24:16;100090.03;;;15.34;68.28
50368;BME280;36281;34.132;-118.018;2024-03-06T04:26:45;100087.13;;;15.36;68.24
50368;BME280;36281;34.132;-118.018;2024-03-06T04:29:14;100112.19;;;15.46;68.73
50368;BME280;36281;34.132;-118.018;2024-03-06T04:31:46;100118.22;;;15.42;68.41
50368;BME280;36281;34.132;-118.018;2024-03-06T04:34:15;100116.94;;;15.44;68.66
50368;BME280;36281;34.132;-118.018;2024-03-06T04:36:44;100122.63;;;15.48;68.50
50368;BME280;36281;34.132;-118.018;2024-03-06T04:39:13;100108.94;;;15.44;68.62
50368;BME280;36281;34.132;-118.018;2024-03-06T04:41:43;100103.75;;;15.26;68.55
50368;BME280;36281;34.132;-118.018;2024-03-06T04:44:12;100086.63;;;15.22;69.00
50368;BME280;36281;34.132;-118.018;2024-03-06T04:46:41;100134.47;;;15.40;68.63
50368;BME280;36281;34.132;-118.018;2024-03-06T04:49:13;100101.69;;;15.28;68.70
50368;BME280;36281;34.132;-118.018;2024-03-06T04:51:42;100129.50;;;15.32;68.70
50368;BME280;36281;34.132;-118.018;2024-03-06T04:54:11;100137.13;;;15.40;69.47
50368;BME280;36281;34.132;-118.018;2024-03-06T04:56:40;100134.84;;;15.32;69.54
50368;BME280;36281;34.132;-118.018;2024-03-06T04:59:09;100147.25;;;15.38;68.81
50368;BME280;36281;34.132;-118.018;2024-03-06T05:01:39;100154.91;;;15.35;69.47
50368;BME280;36281;34.132;-118.018;2024-03-06T05:04:08;100139.50;;;15.25;68.80
50368;BME280;36281;34.132;-118.018;2024-03-06T05:06:56;100153.88;;;15.24;70.24
50368;BME280;36281;34.132;-118.018;2024-03-06T05:09:41;100105.09;;;15.00;69.82
50368;BME280;36281;34.132;-118.018;2024-03-06T05:12:27;100156.78;;;15.22;70.06
50368;BME280;36281;34.132;-118.018;2024-03-06T05:15:13;100160.47;;;15.33;69.92
50368;BME280;36281;34.132;-118.018;2024-03-06T05:17:59;100160.13;;;15.30;69.59
50368;BME280;36281;34.132;-118.018;2024-03-06T05:20:45;100154.78;;;15.30;69.28
50368;BME280;36281;34.132;-118.018;2024-03-06T05:23:33;100155.94;;;15.34;68.61
50368;BME280;36281;34.132;-118.018;2024-03-06T05:26:19;100150.75;;;15.27;69.00
50368;BME280;36281;34.132;-118.018;2024-03-06T05:29:05;100144.16;;;15.18;70.36
50368;BME280;36281;34.132;-118.018;2024-03-06T05:31:51;100130.59;;;15.08;70.09
50368;BME280;36281;34.132;-118.018;2024-03-06T05:34:36;100148.75;;;15.34;69.14
50368;BME280;36281;34.132;-118.018;2024-03-06T05:37:22;100132.88;;;15.16;69.79
50368;BME280;36281;34.132;-118.018;2024-03-06T05:40:11;100145.19;;;15.29;69.95
50368;BME280;36281;34.132;-118.018;2024-03-06T05:42:57;100141.59;;;15.23;70.25
50368;BME280;36281;34.132;-118.018;2024-03-06T05:45:43;100142.06;;;15.20;70.96
50368;BME280;36281;34.132;-118.018;2024-03-06T05:48:29;100143.66;;;15.21;70.91
50368;BME280;36281;34.132;-118.018;2024-03-06T05:51:14;100101.06;;;14.74;71.93
50368;BME280;36281;34.132;-118.018;2024-03-06T05:54:00;100146.72;;;15.13;71.90
50368;BME280;36281;34.132;-118.018;2024-03-06T05:56:48;100150.66;;;15.10;72.16
50368;BME280;36281;34.132;-118.018;2024-03-06T05:59:35;100158.53;;;15.05;72.75
50368;BME280;36281;34.132;-118.018;2024-03-06T06:02:06;100144.75;;;14.96;72.76
50368;BME280;36281;34.132;-118.018;2024-03-06T06:04:35;100147.78;;;14.88;73.68
50368;BME280;36281;34.132;-118.018;2024-03-06T06:07:18;100143.50;;;14.87;73.63
50368;BME280;36281;34.132;-118.018;2024-03-06T06:09:47;100143.81;;;14.91;73.71
50368;BME280;36281;34.132;-118.018;2024-03-06T06:12:18;100142.44;;;14.88;73.98
50368;BME280;36281;34.132;-118.018;2024-03-06T06:14:47;100147.31;;;14.91;74.18
50368;BME280;36281;34.132;-118.018;2024-03-06T06:17:16;100147.91;;;14.93;74.24
50368;BME280;36281;34.132;-118.018;2024-03-06T06:19:46;100148.94;;;14.92;74.62
50368;BME280;36281;34.132;-118.018;2024-03-06T06:22:16;100153.47;;;14.92;75.36
50368;BME280;36281;34.132;-118.018;2024-03-06T06:24:45;100161.00;;;14.95;75.26
50368;BME280;36281;34.132;-118.018;2024-03-06T06:27:14;100162.16;;;14.99;74.93
50368;BME280;36281;34.132;-118.018;2024-03-06T06:29:45;100158.78;;;14.80;75.87
50368;BME280;36281;34.132;-118.018;2024-03-06T06:32:14;100138.75;;;14.78;76.44
50368;BME280;36281;34.132;-118.018;2024-03-06T06:34:44;100147.31;;;14.91;76.22
50368;BME280;36281;34.132;-118.018;2024-03-06T06:37:14;100150.09;;;14.85;76.28
50368;BME280;36281;34.132;-118.018;2024-03-06T06:39:43;100146.63;;;14.84;75.71
50368;BME280;36281;34.132;-118.018;2024-03-06T06:42:13;100146.88;;;14.83;76.44
50368;BME280;36281;34.132;-118.018;2024-03-06T06:44:42;100152.19;;;14.83;76.80
50368;BME280;36281;34.132;-118.018;2024-03-06T06:47:13;100155.75;;;14.77;77.47
50368;BME280;36281;34.132;-118.018;2024-03-06T06:49:42;100138.53;;;14.67;77.17
50368;BME280;36281;34.132;-118.018;2024-03-06T06:52:13;100142.69;;;14.75;77.33
50368;BME280;36281;34.132;-118.018;2024-03-06T06:54:42;100140.00;;;14.75;77.11
50368;BME280;36281;34.132;-118.018;2024-03-06T06:57:11;100141.63;;;14.76;77.35
50368;BME280;36281;34.132;-118.018;2024-03-06T06:59:40;100128.19;;;14.71;78.45
50368;BME280;36281;34.132;-118.018;2024-03-06T07:02:10;100139.31;;;14.68;78.38
50368;BME280;36281;34.132;-118.018;2024-03-06T07:04:40;100146.28;;;14.69;78.23
50368;BME280;36281;34.132;-118.018;2024-03-06T07:07:10;100138.16;;;14.64;78.12
50368;BME280;36281;34.132;-118.018;2024-03-06T07:09:39;100141.41;;;14.78;77.89
50368;BME280;36281;34.132;-118.018;2024-03-06T07:12:08;100136.78;;;14.73;77.72
50368;BME280;36281;34.132;-118.018;2024-03-06T07:14:38;100134.91;;;14.62;77.88
50368;BME280;36281;34.132;-118.018;2024-03-06T07:17:07;100137.91;;;14.65;78.38
50368;BME280;36281;34.132;-118.018;2024-03-06T07:19:36;100135.03;;;14.55;79.02
50368;BME280;36281;34.132;-118.018;2024-03-06T07:22:07;100129.25;;;14.58;78.91
50368;BME280;36281;34.132;-118.018;2024-03-06T07:24:37;100139.41;;;14.61;78.98
50368;BME280;36281;34.132;-118.018;2024-03-06T07:27:06;100137.34;;;14.63;78.20
50368;BME280;36281;34.132;-118.018;2024-03-06T07:29:37;100129.81;;;14.48;78.73
50368;BME280;36281;34.132;-118.018;2024-03-06T07:32:07;100121.44;;;14.45;79.17
50368;BME280;36281;34.132;-118.018;2024-03-06T07:34:37;100139.84;;;14.46;79.38
50368;BME280;36281;34.132;-118.018;2024-03-06T07:37:08;100137.66;;;14.43;79.83
50368;BME280;36281;34.132;-118.018;2024-03-06T07:39:37;100134.88;;;14.38;79.79
50368;BME280;36281;34.132;-118.018;2024-03-06T07:42:07;100152.59;;;14.44;80.03
50368;BME280;36281;34.132;-118.018;2024-03-06T07:44:36;100147.03;;;14.34;80.71
50368;BME280;36281;34.132;-118.018;2024-03-06T07:47:06;100114.31;;;14.15;80.45
50368;BME280;36281;34.132;-118.018;2024-03-06T07:49:37;100152.94;;;14.36;80.56
50368;BME280;36281;34.132;-118.018;2024-03-06T07:52:08;100159.31;;;14.35;81.17
50368;BME280;36281;34.132;-118.018;2024-03-06T07:54:37;100159.66;;;14.27;80.91
50368;BME280;36281;34.132;-118.018;2024-03-06T07:57:08;100150.00;;;14.26;81.08
50368;BME280;36281;34.132;-118.018;2024-03-06T07:59:38;100157.00;;;14.27;80.89
50368;BME280;36281;34.132;-118.018;2024-03-06T08:02:08;100152.34;;;14.22;81.03
50368;BME280;36281;34.132;-118.018;2024-03-06T08:04:41;100132.97;;;14.15;81.73
50368;BME280;36281;34.132;-118.018;2024-03-06T08:07:13;100139.22;;;14.21;81.36
50368;BME280;36281;34.132;-118.018;2024-03-06T08:09:42;100141.88;;;14.09;81.86
50368;BME280;36281;34.132;-118.018;2024-03-06T08:12:17;100100.13;;;13.80;82.63
50368;BME280;36281;34.132;-118.018;2024-03-06T08:14:46;100127.38;;;13.93;82.63
50368;BME280;36281;34.132;-118.018;2024-03-06T08:17:16;100135.41;;;13.75;83.97
50368;BME280;36281;34.132;-118.018;2024-03-06T08:19:45;100133.78;;;13.74;84.35
50368;BME280;36281;34.132;-118.018;2024-03-06T08:22:16;100125.53;;;13.64;83.93
50368;BME280;36281;34.132;-118.018;2024-03-06T08:24:45;100120.50;;;13.56;84.58
50368;BME280;36281;34.132;-118.018;2024-03-06T08:27:15;100127.53;;;13.50;84.54
50368;BME280;36281;34.132;-118.018;2024-03-06T08:29:44;100121.13;;;13.39;85.05
50368;BME280;36281;34.132;-118.018;2024-03-06T08:32:13;100125.50;;;13.34;85.38
50368;BME280;36281;34.132;-118.018;2024-03-06T08:34:43;100111.31;;;13.22;85.79
50368;BME280;36281;34.132;-118.018;2024-03-06T08:37:12;100120.91;;;13.23;86.38
50368;BME280;36281;34.132;-118.018;2024-03-06T08:39:43;100112.53;;;13.01;87.31
50368;BME280;36281;34.132;-118.018;2024-03-06T08:42:13;100110.09;;;12.99;87.50
50368;BME280;36281;34.132;-118.018;2024-03-06T08:44:50;100116.75;;;12.90;88.83
50368;BME280;36281;34.132;-118.018;2024-03-06T08:47:20;100125.75;;;12.89;88.64
50368;BME280;36281;34.132;-118.018;2024-03-06T08:49:54;100125.38;;;12.85;89.11
50368;BME280;36281;34.132;-118.018;2024-03-06T08:52:24;100126.47;;;12.78;89.04
50368;BME280;36281;34.132;-118.018;2024-03-06T08:54:56;100122.25;;;12.70;89.88
50368;BME280;36281;34.132;-118.018;2024-03-06T08:57:26;100121.16;;;12.78;89.02
50368;BME280;36281;34.132;-118.018;2024-03-06T08:59:57;100099.59;;;12.67;89.76
50368;BME280;36281;34.132;-118.018;2024-03-06T09:02:36;100126.09;;;12.74;90.40
50368;BME280;36281;34.132;-118.018;2024-03-06T09:05:11;100115.44;;;12.56;90.77
50368;BME280;36281;34.132;-118.018;2024-03-06T09:07:42;100113.00;;;12.54;90.60
50368;BME280;36281;34.132;-118.018;2024-03-06T09:10:13;100119.72;;;12.57;91.02
50368;BME280;36281;34.132;-118.018;2024-03-06T09:12:43;100087.81;;;12.38;91.88
50368;BME280;36281;34.132;-118.018;2024-03-06T09:15:12;100098.00;;;12.41;92.46
50368;BME280;36281;34.132;-118.018;2024-03-06T09:17:42;100109.31;;;12.55;92.97
50368;BME280;36281;34.132;-118.018;2024-03-06T09:20:11;100107.63;;;12.61;93.15
50368;BME280;36281;34.132;-118.018;2024-03-06T09:22:42;100102.91;;;12.63;93.74
50368;BME280;36281;34.132;-118.018;2024-03-06T09:25:13;100094.50;;;12.66;94.21
50368;BME280;36281;34.132;-118.018;2024-03-06T09:27:44;100062.31;;;12.56;93.90
50368;BME280;36281;34.132;-118.018;2024-03-06T09:30:16;100085.78;;;12.77;94.06
50368;BME280;36281;34.132;-118.018;2024-03-06T09:32:48;100095.91;;;12.87;94.14
50368;BME280;36281;34.132;-118.018;2024-03-06T09:35:18;100080.19;;;13.04;93.42
50368;BME280;36281;34.132;-118.018;2024-03-06T09:37:48;100086.47;;;12.91;93.50
50368;BME280;36281;34.132;-118.018;2024-03-06T09:40:32;100051.56;;;12.69;94.08
50368;BME280;36281;34.132;-118.018;2024-03-06T09:43:02;100069.41;;;12.80;94.38
50368;BME280;36281;34.132;-118.018;2024-03-06T09:45:31;100062.16;;;12.87;94.04
50368;BME280;36281;34.132;-118.018;2024-03-06T09:48:01;100063.97;;;12.93;94.27
50368;BME280;36281;34.132;-118.018;2024-03-06T09:50:36;100063.22;;;12.86;94.16
50368;BME280;36281;34.132;-118.018;2024-03-06T09:53:10;100076.78;;;12.97;94.02
50368;BME280;36281;34.132;-118.018;2024-03-06T09:56:00;100055.69;;;12.83;94.21
50368;BME280;36281;34.132;-118.018;2024-03-06T09:58:30;100061.34;;;12.87;94.41
50368;BME280;36281;34.132;-118.018;2024-03-06T10:01:15;100040.91;;;12.69;95.22
50368;BME280;36281;34.132;-118.018;2024-03-06T10:03:57;100032.72;;;12.71;94.63
50368;BME280;36281;34.132;-118.018;2024-03-06T10:06:27;100058.69;;;12.87;94.64
50368;BME280;36281;34.132;-118.018;2024-03-06T10:09:03;100038.25;;;12.69;95.71
50368;BME280;36281;34.132;-118.018;2024-03-06T10:11:41;100039.44;;;12.73;95.32
50368;BME280;36281;34.132;-118.018;2024-03-06T10:14:14;100036.34;;;12.76;94.66
50368;BME280;36281;34.132;-118.018;2024-03-06T10:16:55;100022.16;;;12.64;94.74
50368;BME280;36281;34.132;-118.018;2024-03-06T10:19:33;100029.16;;;12.77;94.78
50368;BME280;36281;34.132;-118.018;2024-03-06T10:22:07;100022.81;;;12.78;95.00
50368;BME280;36281;34.132;-118.018;2024-03-06T10:24:39;100026.22;;;12.85;95.66
50368;BME280;36281;34.132;-118.018;2024-03-06T10:27:15;100019.06;;;12.85;95.60
50368;BME280;36281;34.132;-118.018;2024-03-06T10:30:06;100022.09;;;12.89;95.52
50368;BME280;36281;34.132;-118.018;2024-03-06T10:32:40;99999.94;;;12.77;96.08
50368;BME280;36281;34.132;-118.018;2024-03-06T10:35:21;100010.84;;;12.87;95.71
50368;BME280;36281;34.132;-118.018;2024-03-06T10:37:50;100004.44;;;12.94;95.06
50368;BME280;36281;34.132;-118.018;2024-03-06T10:40:39;99984.78;;;12.77;95.12
50368;BME280;36281;34.132;-118.018;2024-03-06T10:43:11;100006.34;;;12.87;95.14
50368;BME280;36281;34.132;-118.018;2024-03-06T10:45:47;100017.88;;;13.00;95.27
50368;BME280;36281;34.132;-118.018;2024-03-06T10:48:19;99967.56;;;12.68;95.88
50368;BME280;36281;34.132;-118.018;2024-03-06T10:51:02;100018.69;;;13.00;95.80
50368;BME280;36281;34.132;-118.018;2024-03-06T10:53:36;100010.78;;;12.93;96.13
50368;BME280;36281;34.132;-118.018;2024-03-06T10:56:09;100008.19;;;13.05;95.03
50368;BME280;36281;34.132;-118.018;2024-03-06T10:58:56;99995.66;;;12.76;96.01
50368;BME280;36281;34.132;-118.018;2024-03-06T11:01:31;99978.75;;;12.70;96.33
50368;BME280;36281;34.132;-118.018;2024-03-06T11:04:02;100010.03;;;12.86;96.21
50368;BME280;36281;34.132;-118.018;2024-03-06T11:06:46;99965.91;;;12.67;95.50
50368;BME280;36281;34.132;-118.018;2024-03-06T11:09:17;99960.03;;;12.65;95.49
50368;BME280;36281;34.132;-118.018;2024-03-06T11:11:54;99967.03;;;12.59;95.64
50368;BME280;36281;34.132;-118.018;2024-03-06T11:14:26;99981.19;;;12.72;95.27
50368;BME280;36281;34.132;-118.018;2024-03-06T11:17:00;99992.28;;;12.68;95.00
50368;BME280;36281;34.132;-118.018;2024-03-06T11:19:31;99984.53;;;12.49;95.28
50368;BME280;36281;34.132;-118.018;2024-03-06T11:22:01;99955.16;;;12.25;95.25
50368;BME280;36281;34.132;-118.018;2024-03-06T11:24:33;99976.63;;;12.24;95.51
50368;BME280;36281;34.132;-118.018;2024-03-06T11:27:05;99948.03;;;12.01;96.12
50368;BME280;36281;34.132;-118.018;2024-03-06T11:30:07;99981.81;;;12.12;96.72
50368;BME280;36281;34.132;-118.018;2024-03-06T11:33:00;99951.44;;;11.83;97.16
50368;BME280;36281;34.132;-118.018;2024-03-06T11:35:44;99931.38;;;11.69;97.15
50368;BME280;36281;34.132;-118.018;2024-03-06T11:38:38;99942.94;;;11.74;96.52
50368;BME280;36281;34.132;-118.018;2024-03-06T11:41:08;99964.53;;;11.84;96.98
50368;BME280;36281;34.132;-118.018;2024-03-06T11:43:43;99960.09;;;11.72;97.81
50368;BME280;36281;34.132;-118.018;2024-03-06T11:46:17;99970.72;;;11.72;98.21
50368;BME280;36281;34.132;-118.018;2024-03-06T11:48:52;99925.69;;;11.33;98.65
50368;BME280;36281;34.132;-118.018;2024-03-06T11:51:23;99974.72;;;11.56;98.61
50368;BME280;36281;34.132;-118.018;2024-03-06T11:53:55;99977.53;;;11.61;98.49
50368;BME280;36281;34.132;-118.018;2024-03-06T11:56:30;99983.81;;;11.67;98.39
50368;BME280;36281;34.132;-118.018;2024-03-06T11:59:02;99984.38;;;11.44;99.21
50368;BME280;36281;34.132;-118.018;2024-03-06T12:01:34;99987.66;;;11.71;97.60
50368;BME280;36281;34.132;-118.018;2024-03-06T12:04:05;99993.09;;;11.51;97.73
50368;BME280;36281;34.132;-118.018;2024-03-06T12:06:47;100004.00;;;11.36;98.12
50368;BME280;36281;34.132;-118.018;2024-03-06T12:09:25;99987.19;;;11.17;98.79
50368;BME280;36281;34.132;-118.018;2024-03-06T12:11:56;99971.16;;;11.05;98.96
50368;BME280;36281;34.132;-118.018;2024-03-06T12:14:29;99998.38;;;11.26;99.89
50368;BME280;36281;34.132;-118.018;2024-03-06T12:17:02;100004.34;;;11.15;100.00
50368;BME280;36281;34.132;-118.018;2024-03-06T12:19:39;99999.41;;;11.25;100.00
50368;BME280;36281;34.132;-118.018;2024-03-06T12:22:16;99981.50;;;11.13;100.00
50368;BME280;36281;34.132;-118.018;2024-03-06T12:24:58;99992.25;;;11.25;100.00
50368;BME280;36281;34.132;-118.018;2024-03-06T12:27:29;99976.53;;;11.24;100.00
50368;BME280;36281;34.132;-118.018;2024-03-06T12:30:03;99958.44;;;11.21;100.00
50368;BME280;36281;34.132;-118.018;2024-03-06T12:32:39;99985.97;;;11.20;100.00
50368;BME280;36281;34.132;-118.018;2024-03-06T12:35:09;99982.28;;;11.21;100.00
50368;BME280;36281;34.132;-118.018;2024-03-06T12:37:41;99981.72;;;11.12;100.00
50368;BME280;36281;34.132;-118.018;2024-03-06T12:40:12;99974.66;;;10.93;100.00
50368;BME280;36281;34.132;-118.018;2024-03-06T12:42:44;99984.41;;;10.99;100.00
50368;BME280;36281;34.132;-118.018;2024-03-06T12:45:24;99979.28;;;11.10;100.00
50368;BME280;36281;34.132;-118.018;2024-03-06T12:48:01;99945.22;;;10.76;99.92